Time;durP1;ratioP1;P1;durP2;ratioP2;P2;SDS_P1;SDS_P2;PMS_P1;PMS_P2;Temp;Humidity;BMP_temperature;BMP_pressure;BME280_temperature;BME280_humidity;BME280_pressure;Samples;Min_cycle;Max_cycle;Signal;HPM_P1;HPM_P2
2022/12/05 05:03:03;;;;;;;18.43;15.03;;;5.00;99.90;;;;;;6188367;23;20400;-63
2022/12/05 05:05:32;;;;;;;26.77;16.97;;;5.00;99.90;;;;;;6188145;23;20857;-63
2022/12/05 05:08:00;;;;;;;19.87;15.90;;;5.00;99.90;;;;;;6188484;23;20445;-62
2022/12/05 05:10:33;;;;;;;22.17;17.07;;;5.00;99.90;;;;;;6192261;23;20405;-61
2022/12/05 05:12:59;;;;;;;17.43;14.57;;;5.00;99.90;;;;;;6218425;23;20395;-62
2022/12/05 05:15:26;;;;;;;20.87;16.53;;;5.00;99.90;;;;;;6218473;23;20404;-62
2022/12/05 05:17:53;;;;;;;19.60;15.77;;;5.00;99.90;;;;;;6218031;23;20439;-63
2022/12/05 05:20:23;;;;;;;22.77;16.40;;;5.00;99.90;;;;;;6218275;23;20408;-63
2022/12/05 05:22:50;;;;;;;21.67;17.03;;;5.00;99.90;;;;;;6218175;23;20399;-63
2022/12/05 05:25:17;;;;;;;22.00;16.90;;;5.00;99.90;;;;;;6217777;23;20948;-62
2022/12/05 05:27:48;;;;;;;22.37;17.27;;;5.00;99.90;;;;;;6218082;23;20412;-62
2022/12/05 05:30:15;;;;;;;23.33;17.80;;;5.00;99.90;;;;;;6217776;23;20404;-62
2022/12/05 05:32:42;;;;;;;23.37;18.70;;;5.00;99.90;;;;;;6217924;23;20415;-62
2022/12/05 05:35:10;;;;;;;24.50;17.50;;;4.90;99.90;;;;;;6217779;23;20412;-62
2022/12/05 05:37:38;;;;;;;23.20;17.70;;;4.90;99.90;;;;;;6217354;23;20963;-62
2022/12/05 05:40:08;;;;;;;25.77;18.33;;;4.90;99.90;;;;;;6218373;23;20420;-62
2022/12/05 05:42:34;;;;;;;20.70;17.00;;;4.90;99.90;;;;;;6218544;23;20466;-63
2022/12/05 05:45:01;;;;;;;21.97;18.00;;;4.80;99.90;;;;;;6218094;23;20431;-61
2022/12/05 05:47:28;;;;;;;23.80;17.47;;;4.80;99.90;;;;;;6218284;23;20482;-63
2022/12/05 05:49:54;;;;;;;22.23;17.03;;;4.70;99.90;;;;;;6217193;23;20955;-62
2022/12/05 05:52:21;;;;;;;22.80;18.07;;;4.70;99.90;;;;;;6217572;23;20436;-62
2022/12/05 05:54:49;;;;;;;27.00;19.10;;;4.60;99.90;;;;;;6217750;23;20411;-62
2022/12/05 05:57:16;;;;;;;26.53;18.37;;;4.60;99.90;;;;;;6217752;23;20717;-62
2022/12/05 05:59:42;;;;;;;25.90;18.50;;;4.60;99.90;;;;;;6217961;23;20435;-62
2022/12/05 06:02:09;;;;;;;24.70;18.63;;;4.60;99.90;;;;;;6241747;23;20517;-62
2022/12/05 06:04:36;;;;;;;26.50;18.90;;;4.60;99.90;;;;;;6248011;23;20434;-63
2022/12/05 06:07:02;;;;;;;24.90;18.40;;;4.60;99.90;;;;;;6250155;23;20410;-65
2022/12/05 06:09:29;;;;;;;29.17;19.20;;;4.50;99.90;;;;;;6250956;23;20464;-64
2022/12/05 06:11:57;;;;;;;28.30;20.17;;;4.50;99.90;;;;;;6250636;23;20731;-63
2022/12/05 06:14:24;;;;;;;28.30;19.20;;;4.50;99.90;;;;;;6251862;23;20403;-64
2022/12/05 06:16:50;;;;;;;24.83;18.40;;;4.50;99.90;;;;;;6252035;23;20778;-63
2022/12/05 06:19:17;;;;;;;24.90;18.20;;;4.50;99.90;;;;;;6249422;23;20407;-64
2022/12/05 06:21:44;;;;;;;27.17;19.17;;;4.60;99.90;;;;;;6248337;23;20481;-64
2022/12/05 06:24:10;;;;;;;22.33;17.77;;;4.60;99.90;;;;;;6248617;23;20431;-63
2022/12/05 06:26:37;;;;;;;29.90;21.03;;;4.70;99.90;;;;;;6248822;23;20411;-63
2022/12/05 06:29:05;;;;;;;25.20;18.97;;;4.70;99.90;;;;;;6248133;23;20414;-63
2022/12/05 06:31:32;;;;;;;28.47;20.40;;;4.80;99.90;;;;;;6248142;23;20449;-63
2022/12/05 06:34:01;;;;;;;24.70;19.27;;;4.80;99.90;;;;;;6248202;23;20414;-63
2022/12/05 06:36:28;;;;;;;24.30;19.10;;;4.80;99.90;;;;;;6248974;23;20414;-64
2022/12/05 06:38:56;;;;;;;22.10;18.00;;;4.80;99.90;;;;;;6248353;23;20498;-63
2022/12/05 06:41:23;;;;;;;25.73;18.63;;;4.80;99.90;;;;;;6247302;23;20430;-64
2022/12/05 06:43:52;;;;;;;23.80;18.73;;;4.80;99.90;;;;;;6252724;23;20410;-64
2022/12/05 06:46:21;;;;;;;28.67;18.60;;;4.80;99.90;;;;;;6253635;23;20411;-64
2022/12/05 06:48:47;;;;;;;23.33;18.80;;;4.80;99.90;;;;;;6253208;23;20414;-64
2022/12/05 06:51:16;;;;;;;23.70;18.63;;;4.70;99.90;;;;;;6247755;23;20435;-63
2022/12/05 06:53:43;;;;;;;26.53;17.50;;;4.70;99.90;;;;;;6247643;23;20407;-63
2022/12/05 06:56:12;;;;;;;29.87;19.87;;;4.60;99.90;;;;;;6247109;23;20449;-64
2022/12/05 06:58:39;;;;;;;26.83;19.83;;;4.60;99.90;;;;;;6247294;23;20414;-64
2022/12/05 07:03:55;;;;;;;21.97;18.37;;;4.60;99.90;;;;;;6247141;23;20570;-64
2022/12/05 07:06:21;;;;;;;26.33;19.97;;;4.60;99.90;;;;;;6247125;23;20411;-62
2022/12/05 07:08:48;;;;;;;25.87;18.90;;;4.70;99.90;;;;;;6247114;23;20410;-63
2022/12/05 07:11:15;;;;;;;23.87;18.23;;;4.70;99.90;;;;;;6246916;23;20431;-63
2022/12/05 07:13:41;;;;;;;25.67;18.40;;;4.80;99.90;;;;;;6247135;23;20418;-64
2022/12/05 07:16:08;;;;;;;26.63;19.00;;;4.80;99.90;;;;;;6246834;23;20415;-64
2022/12/05 07:18:35;;;;;;;23.43;18.20;;;4.80;99.90;;;;;;6247027;23;20782;-64
2022/12/05 07:21:06;;;;;;;29.10;18.30;;;4.80;99.90;;;;;;6246663;23;20469;-64
2022/12/05 07:23:33;;;;;;;22.63;17.50;;;4.90;99.90;;;;;;6246364;23;20403;-64
2022/12/05 07:25:59;;;;;;;22.07;17.43;;;4.90;99.90;;;;;;6246536;23;20794;-64
2022/12/05 07:28:26;;;;;;;24.33;18.83;;;5.00;99.90;;;;;;6246168;23;20950;-64
2022/12/05 07:31:00;;;;;;;24.57;18.60;;;5.00;99.90;;;;;;6246118;23;20814;-64
2022/12/05 07:33:27;;;;;;;22.97;18.07;;;5.10;99.90;;;;;;6247533;23;20470;-63
2022/12/05 07:35:58;;;;;;;24.77;18.60;;;5.10;99.90;;;;;;6246848;23;20439;-64
2022/12/05 07:38:26;;;;;;;23.60;17.83;;;5.10;99.90;;;;;;6246793;23;20403;-64
2022/12/05 07:40:53;;;;;;;26.60;18.60;;;5.10;99.90;;;;;;6246513;23;20453;-64
2022/12/05 07:43:20;;;;;;;23.40;18.53;;;5.10;99.90;;;;;;6246843;23;20411;-63
2022/12/05 07:45:46;;;;;;;26.50;19.37;;;5.10;99.90;;;;;;6246739;23;20484;-64
2022/12/05 07:48:13;;;;;;;21.73;18.50;;;5.10;99.90;;;;;;6246518;23;20900;-63
2022/12/05 07:50:40;;;;;;;22.07;18.17;;;5.10;99.90;;;;;;6246315;23;20798;-64
2022/12/05 07:53:06;;;;;;;21.07;17.17;;;5.10;99.90;;;;;;6246808;23;20415;-64
2022/12/05 07:55:34;;;;;;;22.90;17.50;;;5.20;99.90;;;;;;6246992;23;20411;-63
2022/12/05 07:58:01;;;;;;;23.23;17.80;;;5.20;99.90;;;;;;6246690;23;20469;-63
2022/12/05 08:00:28;;;;;;;23.10;16.60;;;5.30;99.90;;;;;;6246885;23;20411;-63
2022/12/05 08:02:54;;;;;;;25.87;18.17;;;5.30;99.90;;;;;;6249013;23;20399;-63
2022/12/05 08:05:21;;;;;;;22.27;17.93;;;5.40;99.90;;;;;;6248832;23;20435;-63
2022/12/05 08:07:48;;;;;;;25.07;17.40;;;5.40;99.90;;;;;;6249126;23;20464;-64
2022/12/05 08:10:14;;;;;;;26.00;19.77;;;5.40;99.90;;;;;;6248798;23;20790;-64
2022/12/05 08:12:42;;;;;;;25.20;19.00;;;5.50;99.90;;;;;;6249965;23;20394;-63
2022/12/05 08:15:10;;;;;;;22.67;18.00;;;5.40;99.90;;;;;;6248730;23;20407;-63
2022/12/05 08:17:36;;;;;;;24.07;18.23;;;5.40;99.90;;;;;;6249420;23;20461;-64
2022/12/05 08:20:04;;;;;;;24.00;17.93;;;5.40;99.90;;;;;;6249002;23;20468;-64
2022/12/05 08:22:31;;;;;;;28.97;19.57;;;5.30;99.90;;;;;;6248560;23;20430;-64
2022/12/05 08:24:58;;;;;;;29.90;22.10;;;5.40;99.90;;;;;;6248476;23;20442;-64
2022/12/05 08:27:24;;;;;;;23.53;20.60;;;5.80;99.90;;;;;;6248648;23;20411;-65
2022/12/05 08:29:53;;;;;;;22.80;17.53;;;6.30;99.90;;;;;;6248409;23;20411;-64
2022/12/05 08:32:20;;;;;;;18.60;16.57;;;6.30;99.90;;;;;;6248843;23;20434;-63
2022/12/05 08:34:47;;;;;;;19.00;16.10;;;6.30;99.90;;;;;;6248937;23;20406;-63
2022/12/05 08:37:13;;;;;;;19.80;16.73;;;6.10;99.90;;;;;;6248487;23;20410;-62
2022/12/05 08:39:40;;;;;;;20.13;17.77;;;6.00;99.90;;;;;;6248561;23;20395;-63
2022/12/05 08:42:07;;;;;;;19.07;16.10;;;5.90;99.90;;;;;;6248691;23;20438;-64
2022/12/05 08:44:34;;;;;;;18.97;16.00;;;5.90;99.90;;;;;;6248560;23;21004;-64
2022/12/05 08:47:02;;;;;;;20.10;15.97;;;5.90;99.90;;;;;;6248538;23;20411;-63
2022/12/05 08:49:28;;;;;;;20.47;17.30;;;5.80;99.90;;;;;;6248645;23;20474;-65
2022/12/05 08:51:55;;;;;;;18.67;15.60;;;5.80;99.90;;;;;;6248083;23;20434;-64
2022/12/05 08:54:22;;;;;;;18.67;15.77;;;5.90;99.90;;;;;;6248222;23;20414;-63
2022/12/05 08:56:51;;;;;;;18.10;15.80;;;5.80;99.90;;;;;;6248299;23;20461;-63
2022/12/05 08:59:18;;;;;;;19.83;16.13;;;6.00;99.90;;;;;;6247819;23;20437;-63
2022/12/05 09:01:44;;;;;;;18.20;15.87;;;6.00;99.90;;;;;;6247845;23;20443;-63
2022/12/05 09:04:12;;;;;;;19.03;17.00;;;6.00;99.90;;;;;;6248197;23;20537;-63
2022/12/05 09:06:40;;;;;;;19.07;16.67;;;5.90;99.90;;;;;;6248855;23;20434;-63
2022/12/05 09:09:10;;;;;;;19.33;15.87;;;5.90;99.90;;;;;;6248981;23;20735;-63
2022/12/05 09:11:42;;;;;;;19.33;15.63;;;6.00;99.90;;;;;;6249069;23;20427;-63
2022/12/05 09:14:09;;;;;;;18.43;16.53;;;6.00;99.90;;;;;;6249475;23;20395;-63
2022/12/05 09:16:38;;;;;;;19.27;16.40;;;6.10;99.90;;;;;;6249898;23;20407;-63
2022/12/05 09:19:05;;;;;;;19.80;17.43;;;6.10;99.90;;;;;;6249150;23;20418;-63
2022/12/05 09:21:33;;;;;;;20.23;16.60;;;6.20;99.90;;;;;;6248014;23;20434;-64
2022/12/05 09:24:01;;;;;;;19.63;16.70;;;6.20;99.90;;;;;;6247933;23;20415;-63
2022/12/05 09:26:29;;;;;;;18.20;16.40;;;6.30;99.90;;;;;;6248021;23;20439;-64
2022/12/05 09:28:57;;;;;;;17.77;15.90;;;6.30;99.90;;;;;;6247523;23;20415;-64
2022/12/05 09:31:26;;;;;;;17.83;15.93;;;6.30;99.90;;;;;;6247766;23;20480;-64
2022/12/05 09:33:53;;;;;;;20.03;15.40;;;6.40;99.90;;;;;;6247276;23;20919;-64
2022/12/05 09:36:22;;;;;;;18.13;16.27;;;6.50;99.90;;;;;;6247967;23;20406;-64
2022/12/05 09:38:51;;;;;;;16.10;14.40;;;6.50;99.90;;;;;;6247853;23;20498;-64
2022/12/05 09:44:25;;;;;;;20.30;16.40;;;6.50;99.90;;;;;;6248939;23;20443;-64
2022/12/05 09:46:55;;;;;;;19.07;17.07;;;6.60;99.90;;;;;;6248450;23;20396;-64
2022/12/05 09:49:24;;;;;;;17.57;15.80;;;6.50;99.90;;;;;;6250624;23;20411;-63
2022/12/05 09:51:52;;;;;;;19.07;15.40;;;6.50;99.90;;;;;;6249173;23;20430;-63
2022/12/05 09:54:21;;;;;;;16.37;14.67;;;6.40;99.90;;;;;;6248874;23;20464;-62
2022/12/05 09:56:50;;;;;;;16.20;14.10;;;6.40;99.90;;;;;;6247547;23;20899;-63
2022/12/05 09:59:19;;;;;;;18.70;16.17;;;6.40;99.90;;;;;;6247761;23;20411;-63
2022/12/05 10:01:53;;;;;;;16.13;14.43;;;6.40;99.90;;;;;;6247269;23;20529;-63
2022/12/05 10:04:36;;;;;;;16.30;14.60;;;6.50;99.90;;;;;;6247690;23;20394;-63
2022/12/05 10:07:10;;;;;;;16.40;14.67;;;6.50;99.90;;;;;;6247941;23;20391;-63
2022/12/05 10:10:00;;;;;;;16.63;14.93;;;6.60;99.90;;;;;;6248327;23;20391;-63
2022/12/05 10:12:52;;;;;;;17.73;14.80;;;6.70;99.90;;;;;;6247653;23;20426;-63
2022/12/05 10:15:26;;;;;;;15.93;14.23;;;6.70;99.90;;;;;;6240134;23;20411;-63
2022/12/05 10:17:58;;;;;;;15.90;14.27;;;6.80;99.90;;;;;;6248077;23;20395;-63
2022/12/05 10:20:29;;;;;;;17.53;15.73;;;6.90;99.90;;;;;;6248619;23;20453;-63
2022/12/05 10:23:02;;;;;;;16.53;15.13;;;6.90;99.90;;;;;;6248997;23;20449;-64
2022/12/05 10:25:33;;;;;;;15.60;14.10;;;6.90;99.90;;;;;;6248841;23;20422;-63
2022/12/05 10:28:02;;;;;;;17.10;15.40;;;6.90;99.90;;;;;;6249582;23;20396;-63
2022/12/05 10:30:32;;;;;;;18.73;16.20;;;6.80;99.90;;;;;;6247494;23;20411;-63
2022/12/05 10:33:01;;;;;;;17.83;15.97;;;6.80;99.90;;;;;;6247474;23;20402;-63
2022/12/05 10:35:33;;;;;;;17.60;15.47;;;6.70;99.90;;;;;;6246999;23;20888;-63
2022/12/05 10:38:05;;;;;;;18.50;16.50;;;6.60;99.90;;;;;;6247353;23;20449;-63
2022/12/05 10:40:37;;;;;;;19.93;17.83;;;6.60;99.90;;;;;;6247671;23;20403;-63
2022/12/05 10:43:04;;;;;;;18.60;16.47;;;6.60;99.90;;;;;;6247423;23;20395;-63
2022/12/05 10:45:32;;;;;;;18.27;15.73;;;6.60;99.90;;;;;;6247092;23;20500;-62
2022/12/05 10:47:58;;;;;;;18.00;15.77;;;6.60;99.90;;;;;;6247536;23;20411;-62
2022/12/05 10:50:29;;;;;;;18.00;16.07;;;6.60;99.90;;;;;;6246855;23;20418;-62
2022/12/05 10:52:57;;;;;;;21.90;17.00;;;6.60;99.90;;;;;;6247040;23;20395;-62
2022/12/05 10:55:29;;;;;;;18.00;16.07;;;6.70;99.90;;;;;;6246616;23;20759;-62
2022/12/05 10:58:12;;;;;;;18.13;16.33;;;6.70;99.90;;;;;;6247143;23;20395;-62
2022/12/05 11:00:43;;;;;;;16.90;15.10;;;6.80;99.90;;;;;;6246796;23;20443;-62
2022/12/05 11:03:24;;;;;;;21.63;19.40;;;6.90;99.90;;;;;;6247873;23;20454;-62
2022/12/05 11:05:51;;;;;;;21.40;17.27;;;7.00;99.90;;;;;;6246484;23;20483;-63
2022/12/05 11:08:23;;;;;;;20.27;18.00;;;7.00;99.90;;;;;;6247269;23;20411;-62
2022/12/05 11:10:58;;;;;;;22.07;19.90;;;7.00;99.90;;;;;;6246886;23;20434;-62
2022/12/05 11:13:26;;;;;;;20.80;17.43;;;7.00;99.90;;;;;;6246817;23;20453;-62
2022/12/05 11:15:52;;;;;;;20.80;17.87;;;7.10;99.90;;;;;;6246579;23;20481;-63
2022/12/05 11:18:30;;;;;;;21.37;17.47;;;7.20;99.90;;;;;;6246793;23;20780;-63
2022/12/05 11:21:07;;;;;;;20.10;18.00;;;7.20;99.90;;;;;;6246779;23;20434;-63
2022/12/05 11:23:34;;;;;;;18.47;16.47;;;7.30;99.90;;;;;;6247025;23;20395;-64
2022/12/05 11:26:01;;;;;;;19.20;17.30;;;7.40;99.90;;;;;;6246823;23;20434;-63
2022/12/05 11:28:35;;;;;;;17.00;15.37;;;7.60;99.90;;;;;;6246667;23;20763;-63
2022/12/05 11:31:05;;;;;;;16.70;15.00;;;7.60;99.90;;;;;;6246626;23;20480;-63
2022/12/05 11:33:33;;;;;;;16.93;15.13;;;7.70;99.90;;;;;;6247136;23;20411;-62
2022/12/05 11:36:06;;;;;;;15.77;14.27;;;7.80;99.90;;;;;;6246402;23;20407;-62
2022/12/05 11:38:33;;;;;;;15.10;13.07;;;7.80;99.90;;;;;;6247321;23;20406;-63
2022/12/05 11:41:24;;;;;;;14.40;13.00;;;7.80;99.90;;;;;;6247265;23;20430;-62
2022/12/05 11:44:09;;;;;;;14.60;13.20;;;7.80;99.90;;;;;;6247577;23;20765;-63
2022/12/05 11:46:46;;;;;;;15.20;13.60;;;7.80;99.90;;;;;;6247433;23;20425;-62
2022/12/05 11:49:33;;;;;;;13.63;12.27;;;7.80;99.90;;;;;;6247222;23;20753;-62
2022/12/05 11:52:10;;;;;;;13.33;12.03;;;7.90;99.90;;;;;;6248276;23;20434;-62
2022/12/05 11:54:54;;;;;;;13.80;12.53;;;8.10;99.90;;;;;;6247209;23;20703;-62
2022/12/05 11:57:31;;;;;;;13.97;12.57;;;8.20;99.90;;;;;;6247003;23;20448;-63
2022/12/05 12:00:17;;;;;;;13.67;12.27;;;8.30;99.90;;;;;;6247343;23;20399;-62
2022/12/05 12:03:12;;;;;;;14.67;12.70;;;8.40;99.90;;;;;;6216942;23;20400;-62
2022/12/05 12:05:45;;;;;;;12.73;11.63;;;8.50;99.90;;;;;;6217424;23;20420;-62
2022/12/05 12:08:22;;;;;;;12.37;11.17;;;8.40;99.90;;;;;;6216922;23;20446;-63
2022/12/05 12:11:00;;;;;;;13.40;12.20;;;8.40;99.90;;;;;;6216677;23;20432;-64
2022/12/05 12:13:42;;;;;;;20.17;12.70;;;8.50;99.90;;;;;;6216940;23;20879;-64
2022/12/05 12:16:17;;;;;;;13.47;12.17;;;8.50;99.90;;;;;;6217073;23;20446;-63
2022/12/05 12:19:24;;;;;;;16.13;14.53;;;8.50;99.90;;;;;;6217989;23;20395;-63
2022/12/05 12:22:02;;;;;;;15.07;13.57;;;8.50;99.90;;;;;;6216876;23;20439;-63
2022/12/05 12:24:41;;;;;;;15.90;13.63;;;8.60;99.90;;;;;;6216980;23;20429;-62
2022/12/05 12:27:16;;;;;;;14.37;12.97;;;8.60;99.90;;;;;;6217193;23;20454;-63
2022/12/05 12:29:55;;;;;;;16.23;14.67;;;8.50;99.90;;;;;;6217523;23;20749;-63
2022/12/05 12:32:34;;;;;;;16.10;14.50;;;8.50;99.90;;;;;;6217159;23;20435;-63
2022/12/05 12:35:20;;;;;;;18.77;14.37;;;8.40;99.90;;;;;;6218877;23;20403;-64
2022/12/05 12:38:00;;;;;;;15.97;14.30;;;8.40;99.90;;;;;;6218954;23;20403;-64
2022/12/05 12:40:35;;;;;;;15.00;13.50;;;8.30;99.90;;;;;;6217941;23;20395;-64
2022/12/05 12:43:13;;;;;;;14.07;12.77;;;8.30;99.90;;;;;;6217310;23;20399;-64
2022/12/05 12:46:00;;;;;;;14.17;12.73;;;8.30;99.90;;;;;;6216262;23;20864;-64
2022/12/05 12:48:46;;;;;;;14.03;12.73;;;8.10;99.90;;;;;;6218350;23;20773;-64
2022/12/05 12:51:14;;;;;;;13.30;11.80;;;8.20;99.90;;;;;;6218191;23;20432;-63
2022/12/05 12:53:57;;;;;;;12.87;11.50;;;8.20;99.90;;;;;;6218188;23;20412;-64
2022/12/05 12:56:37;;;;;;;14.53;13.13;;;8.30;99.90;;;;;;6217694;23;20398;-64
2022/12/05 12:59:16;;;;;;;15.60;14.10;;;8.40;99.90;;;;;;6217894;23;20399;-64
2022/12/05 13:01:49;;;;;;;14.57;13.10;;;8.30;99.90;;;;;;6236029;23;20996;-64
2022/12/05 13:04:21;;;;;;;15.53;13.60;;;8.40;99.90;;;;;;6248156;23;20401;-64
2022/12/05 13:06:53;;;;;;;15.20;13.60;;;8.40;99.90;;;;;;6248100;23;20520;-64
2022/12/05 13:09:26;;;;;;;14.97;13.67;;;8.50;99.90;;;;;;6248145;23;20399;-64
2022/12/05 13:11:55;;;;;;;16.17;14.37;;;8.50;99.90;;;;;;6247680;23;20434;-64
2022/12/05 13:14:26;;;;;;;16.40;14.70;;;8.50;99.90;;;;;;6248063;23;20411;-64
2022/12/05 13:16:54;;;;;;;16.57;14.87;;;8.40;99.90;;;;;;6248429;23;20398;-63
2022/12/05 13:19:28;;;;;;;16.53;14.90;;;8.30;99.90;;;;;;6247806;23;20896;-64
2022/12/05 13:21:57;;;;;;;15.83;14.20;;;8.20;99.90;;;;;;6247959;23;20496;-63
2022/12/05 13:24:26;;;;;;;17.10;15.23;;;8.10;99.90;;;;;;6248013;23;20414;-64
2022/12/05 13:26:57;;;;;;;16.40;14.60;;;8.10;99.90;;;;;;6247838;23;20494;-64
2022/12/05 13:29:30;;;;;;;17.87;16.20;;;8.10;99.90;;;;;;6248007;23;20396;-64
2022/12/05 13:31:57;;;;;;;15.90;14.20;;;8.10;99.90;;;;;;6249189;23;20431;-64
2022/12/05 13:34:48;;;;;;;17.30;15.17;;;8.20;99.90;;;;;;6248550;23;20418;-63
2022/12/05 13:43:04;;;;;;;16.17;14.57;;;8.20;99.90;;;;;;6248636;23;20379;-64
2022/12/05 13:45:31;;;;;;;15.60;14.00;;;8.20;99.90;;;;;;6247823;23;20415;-64
2022/12/05 13:48:10;;;;;;;16.60;15.00;;;8.10;99.90;;;;;;6248069;23;20430;-64
2022/12/05 13:50:48;;;;;;;16.47;14.67;;;8.10;99.90;;;;;;6247819;23;20437;-64
2022/12/05 13:53:31;;;;;;;16.60;14.90;;;8.10;99.90;;;;;;6248021;23;20774;-64
2022/12/05 13:56:01;;;;;;;16.73;14.33;;;8.10;99.90;;;;;;6248809;23;20395;-64
2022/12/05 13:58:48;;;;;;;17.30;15.60;;;8.10;99.90;;;;;;6246948;23;20411;-64
2022/12/05 14:01:49;;;;;;;16.33;14.63;;;8.00;99.90;;;;;;6247514;23;20815;-64
2022/12/05 14:04:49;;;;;;;16.70;15.20;;;8.00;99.90;;;;;;6239696;23;20891;-64
2022/12/05 14:07:44;;;;;;;16.80;15.20;;;8.00;99.90;;;;;;6247819;23;20488;-64
2022/12/05 14:10:15;;;;;;;16.90;15.20;;;7.90;99.90;;;;;;6247821;23;20413;-63
2022/12/05 14:12:51;;;;;;;16.97;15.23;;;7.90;99.90;;;;;;6247228;23;20914;-63
2022/12/05 14:15:33;;;;;;;16.53;14.70;;;7.80;99.90;;;;;;6248480;23;20398;-63
2022/12/05 14:18:04;;;;;;;18.67;16.67;;;7.70;99.90;;;;;;6248068;23;20748;-63
2022/12/05 14:20:48;;;;;;;17.20;15.47;;;7.60;99.90;;;;;;6248221;23;20391;-63
2022/12/05 14:23:45;;;;;;;16.43;14.93;;;7.40;99.90;;;;;;6247597;23;20755;-63
2022/12/05 14:26:30;;;;;;;16.90;15.37;;;7.30;99.90;;;;;;6234701;23;20437;-63
2022/12/05 14:29:14;;;;;;;18.07;16.17;;;7.20;99.90;;;;;;6247751;23;20485;-64
2022/12/05 14:31:49;;;;;;;17.87;16.07;;;7.30;99.90;;;;;;6247986;23;20426;-64
2022/12/05 14:34:23;;;;;;;18.03;16.33;;;7.30;99.90;;;;;;6247760;23;20395;-64
2022/12/05 14:36:56;;;;;;;16.23;14.63;;;7.30;99.90;;;;;;6247312;23;20398;-64
2022/12/05 14:39:35;;;;;;;18.30;16.43;;;7.20;99.90;;;;;;6247282;23;20406;-64
2022/12/05 14:42:07;;;;;;;17.23;15.53;;;7.20;99.90;;;;;;6247131;23;20431;-63
2022/12/05 14:44:34;;;;;;;17.00;15.20;;;7.20;99.90;;;;;;6246604;23;20399;-64
2022/12/05 14:47:04;;;;;;;17.10;15.30;;;7.20;99.90;;;;;;6246950;23;20484;-64
2022/12/05 14:49:36;;;;;;;16.30;14.67;;;7.30;99.90;;;;;;6247334;23;20431;-64
2022/12/05 14:52:11;;;;;;;16.20;14.20;;;7.20;99.90;;;;;;6247030;23;20438;-64
2022/12/05 14:54:41;;;;;;;16.97;15.37;;;7.20;99.90;;;;;;6246792;23;20426;-63
2022/12/05 14:57:15;;;;;;;18.23;16.40;;;7.20;99.90;;;;;;6247644;23;20410;-64
2022/12/05 14:59:46;;;;;;;24.57;22.27;;;7.20;99.90;;;;;;6247030;23;20456;-63
2022/12/05 15:02:19;;;;;;;17.43;15.67;;;7.30;99.90;;;;;;6246656;23;20958;-64
2022/12/05 15:04:52;;;;;;;17.13;15.17;;;7.50;99.90;;;;;;6246736;23;20856;-64
2022/12/05 15:07:20;;;;;;;17.40;14.80;;;7.60;99.90;;;;;;6246490;23;20931;-63
2022/12/05 15:09:57;;;;;;;15.70;14.20;;;7.70;99.90;;;;;;6246599;23;20446;-63
2022/12/05 15:12:27;;;;;;;16.17;14.63;;;7.70;99.90;;;;;;6246869;23;20436;-63
2022/12/05 15:15:00;;;;;;;15.57;13.50;;;7.70;99.90;;;;;;6246918;23;20402;-63
2022/12/05 15:17:36;;;;;;;15.60;14.03;;;7.60;99.90;;;;;;6246888;23;20398;-62
2022/12/05 15:20:07;;;;;;;17.33;15.53;;;7.50;99.90;;;;;;6247023;23;20918;-62
2022/12/05 15:22:37;;;;;;;14.70;13.30;;;7.50;99.90;;;;;;6248826;23;20754;-61
2022/12/05 15:25:27;;;;;;;16.50;14.30;;;7.40;99.90;;;;;;6247466;23;20395;-64
2022/12/05 15:27:56;;;;;;;18.57;15.43;;;7.40;99.90;;;;;;6247554;23;20423;-63
2022/12/05 15:30:23;;;;;;;16.67;15.10;;;7.40;99.90;;;;;;6248122;23;20419;-63
2022/12/05 15:32:49;;;;;;;16.80;15.10;;;7.30;99.90;;;;;;6247315;23;20411;-64
2022/12/05 15:35:17;;;;;;;17.43;15.40;;;7.30;99.90;;;;;;6246795;23;20418;-64
2022/12/05 15:37:52;;;;;;;20.80;15.80;;;7.30;99.90;;;;;;6248011;23;20410;-64
2022/12/05 15:40:20;;;;;;;15.90;14.37;;;7.20;99.90;;;;;;6247101;23;20399;-64
2022/12/05 15:42:50;;;;;;;16.93;15.07;;;7.20;99.90;;;;;;6246513;23;20442;-64
2022/12/05 15:45:22;;;;;;;16.63;15.03;;;7.10;99.90;;;;;;6246815;23;20964;-66
2022/12/05 15:47:50;;;;;;;18.90;16.90;;;7.10;99.90;;;;;;6247117;23;20423;-64
2022/12/05 15:50:21;;;;;;;17.47;15.73;;;7.10;99.90;;;;;;6247814;23;20429;-63
2022/12/05 15:52:52;;;;;;;19.87;17.87;;;7.00;99.90;;;;;;6257531;23;20917;-64
2022/12/05 15:55:23;;;;;;;19.60;17.50;;;7.00;99.90;;;;;;6246842;23;20391;-64
2022/12/05 15:57:55;;;;;;;19.20;17.20;;;6.90;99.90;;;;;;6247594;23;20469;-64
2022/12/05 16:00:24;;;;;;;19.80;17.70;;;6.90;99.90;;;;;;6246296;23;20855;-64
2022/12/05 16:02:57;;;;;;;20.20;18.10;;;6.90;99.90;;;;;;6246830;23;20403;-64
2022/12/05 16:05:29;;;;;;;21.20;19.10;;;6.90;99.90;;;;;;6246891;23;20395;-64
2022/12/05 16:07:56;;;;;;;25.53;19.70;;;6.90;99.90;;;;;;6247072;23;20473;-64
2022/12/05 16:10:23;;;;;;;20.87;18.77;;;6.80;99.90;;;;;;6248235;23;20779;-64
2022/12/05 16:12:52;;;;;;;20.10;18.07;;;6.80;99.90;;;;;;6247770;23;20418;-63
2022/12/05 16:15:24;;;;;;;21.27;18.90;;;6.80;99.90;;;;;;6247375;23;20419;-62
2022/12/05 16:17:55;;;;;;;19.07;17.17;;;6.80;99.90;;;;;;6247214;23;20430;-62
2022/12/05 16:20:28;;;;;;;20.10;18.10;;;6.70;99.90;;;;;;6246470;23;20860;-63
2022/12/05 16:22:58;;;;;;;20.83;18.60;;;6.70;99.90;;;;;;6248342;23;20410;-62
2022/12/05 16:25:26;;;;;;;21.40;19.10;;;6.70;99.90;;;;;;6249248;23;20418;-62
2022/12/05 16:28:03;;;;;;;23.30;19.90;;;6.70;99.90;;;;;;6248826;23;20431;-62
2022/12/05 16:30:31;;;;;;;21.97;19.77;;;6.60;99.90;;;;;;6248729;23;20406;-62
2022/12/05 16:33:00;;;;;;;20.57;18.50;;;6.70;99.90;;;;;;6249123;23;20964;-62
2022/12/05 16:35:33;;;;;;;23.83;21.33;;;6.60;99.90;;;;;;6248966;23;20411;-62
2022/12/05 16:38:24;;;;;;;21.93;19.73;;;6.60;99.90;;;;;;6248468;23;20402;-62
2022/12/05 16:40:54;;;;;;;24.23;21.50;;;6.60;99.90;;;;;;6239968;23;20470;-63
2022/12/05 16:43:28;;;;;;;24.57;21.03;;;6.60;99.90;;;;;;6248408;23;20398;-63
2022/12/05 16:45:57;;;;;;;22.03;19.83;;;6.90;99.90;;;;;;6248344;23;20395;-62
2022/12/05 16:48:26;;;;;;;20.97;18.97;;;7.00;99.90;;;;;;6248178;23;20442;-62
2022/12/05 16:51:11;;;;;;;20.77;18.63;;;7.10;99.90;;;;;;6248474;23;20430;-63
2022/12/05 16:53:39;;;;;;;19.50;17.60;;;7.20;99.90;;;;;;6248558;23;20395;-62
2022/12/05 16:56:09;;;;;;;19.87;17.87;;;7.20;99.90;;;;;;6248490;23;20414;-62
2022/12/05 16:58:37;;;;;;;18.60;16.40;;;7.20;99.90;;;;;;6248359;23;20474;-62
2022/12/05 17:01:06;;;;;;;20.47;18.27;;;7.20;99.90;;;;;;6247931;23;20442;-63
2022/12/05 17:03:33;;;;;;;19.10;17.23;;;7.10;99.90;;;;;;6248834;23;20489;-63
2022/12/05 17:06:00;;;;;;;21.30;19.07;;;7.00;99.90;;;;;;6248456;23;20418;-62
2022/12/05 17:08:27;;;;;;;19.80;17.80;;;7.00;99.90;;;;;;6249035;23;20780;-62
2022/12/05 17:10:54;;;;;;;19.27;17.30;;;7.00;99.90;;;;;;6247669;23;20438;-62
2022/12/05 17:13:21;;;;;;;20.00;17.87;;;7.00;99.90;;;;;;6248115;23;20410;-62
2022/12/05 17:15:49;;;;;;;21.50;19.17;;;7.00;99.90;;;;;;6247931;23;20411;-62
2022/12/05 17:18:19;;;;;;;19.20;17.30;;;6.90;99.90;;;;;;6248129;23;20411;-62
2022/12/05 17:20:48;;;;;;;21.47;19.27;;;6.90;99.90;;;;;;6248366;23;20438;-62
2022/12/05 17:23:16;;;;;;;21.80;19.67;;;6.80;99.90;;;;;;6248888;23;20411;-62
2022/12/05 17:25:46;;;;;;;19.47;17.57;;;6.80;99.90;;;;;;6248052;23;20411;-62
2022/12/05 17:28:12;;;;;;;21.60;19.40;;;6.70;99.90;;;;;;6247908;23;20517;-62
2022/12/05 17:30:39;;;;;;;21.93;19.70;;;6.70;99.90;;;;;;6248052;23;20435;-62
2022/12/05 17:33:10;;;;;;;20.90;18.90;;;6.70;99.90;;;;;;6248128;23;20434;-62
2022/12/05 17:35:37;;;;;;;20.83;18.83;;;6.70;99.90;;;;;;6247936;23;20407;-62
2022/12/05 17:38:04;;;;;;;21.77;19.57;;;6.70;99.90;;;;;;6248080;23;20460;-62
2022/12/05 17:40:31;;;;;;;20.47;18.37;;;6.70;99.90;;;;;;6248740;23;20758;-62
2022/12/05 17:42:59;;;;;;;22.80;20.50;;;6.60;99.90;;;;;;6248542;23;20445;-62
2022/12/05 17:45:25;;;;;;;21.60;19.60;;;6.60;99.90;;;;;;6248289;23;20395;-63
2022/12/05 17:47:52;;;;;;;21.87;19.67;;;6.60;99.90;;;;;;6247968;23;20439;-65
2022/12/05 17:50:22;;;;;;;23.27;20.77;;;6.60;99.90;;;;;;6247757;23;20791;-64
2022/12/05 17:52:54;;;;;;;21.40;19.40;;;6.60;99.90;;;;;;6248597;23;20429;-65
2022/12/05 17:55:23;;;;;;;22.40;20.20;;;6.60;99.90;;;;;;6249613;23;20395;-65
2022/12/05 17:57:50;;;;;;;21.63;19.57;;;6.60;99.90;;;;;;6249077;23;20410;-64
2022/12/05 18:00:18;;;;;;;21.67;19.53;;;6.70;99.90;;;;;;6248606;23;20418;-64
2022/12/05 18:02:45;;;;;;;22.33;20.03;;;6.60;99.90;;;;;;6247987;23;20399;-64
2022/12/05 18:05:14;;;;;;;21.50;19.17;;;6.70;99.90;;;;;;6248010;23;20762;-65
2022/12/05 18:07:44;;;;;;;21.70;19.60;;;6.60;99.90;;;;;;6247731;23;20985;-65
2022/12/05 18:10:13;;;;;;;22.67;20.40;;;6.60;99.90;;;;;;6248291;23;20399;-64